createdAt,value
2022-08-05T00:01:20.589Z,101387.59
2022-08-05T00:04:09.802Z,101400.72
2022-08-05T00:06:55.240Z,101393.72
2022-08-05T00:09:44.627Z,101394.72
2022-08-05T00:12:28.646Z,101397.56
2022-08-05T00:15:58.239Z,101404.38
2022-08-05T00:18:22.533Z,101404.47
2022-08-05T00:21:10.606Z,101403.47
2022-08-05T00:24:10.658Z,101405.22
2022-08-05T00:27:01.756Z,101407.09
2022-08-05T00:29:45.882Z,101408.06
2022-08-05T00:32:32.590Z,101409.91
2022-08-05T00:35:33.175Z,101409.06
2022-08-05T00:38:28.618Z,101408.22
2022-08-05T00:41:15.477Z,101414.03
2022-08-05T00:44:08.636Z,101408.88
2022-08-05T00:46:54.072Z,101415.13
2022-08-05T00:49:51.438Z,101409.84
2022-08-05T00:52:32.570Z,101408.84
2022-08-05T00:55:42.217Z,101424.88
2022-08-05T00:58:27.499Z,101411.69
2022-08-05T01:01:24.926Z,101419.75
2022-08-05T01:04:20.102Z,101417.13
2022-08-05T01:07:13.961Z,101416.94
2022-08-05T01:09:58.528Z,101418.88
2022-08-05T01:13:05.188Z,101419.88
2022-08-05T01:15:57.681Z,101412.66
2022-08-05T01:18:53.723Z,101415.50
2022-08-05T01:21:59.050Z,101418.16
2022-08-05T01:25:40.387Z,101418.97
2022-08-05T01:28:39.513Z,101411.91
2022-08-05T01:31:50.765Z,101411.91
2022-08-05T01:34:40.901Z,101413.75
2022-08-05T01:37:32.081Z,101414.75
2022-08-05T01:40:22.546Z,101418.22
2022-08-05T01:43:10.650Z,101421.75
2022-08-05T01:46:16.419Z,101413.84
2022-08-05T01:49:24.383Z,101410.47
2022-08-05T01:52:17.827Z,101416.69
2022-08-05T01:55:04.473Z,101412.25
2022-08-05T01:58:13.082Z,101408.78
2022-08-05T02:00:59.736Z,101416.69
2022-08-05T02:03:52.616Z,101422.88
2022-08-05T02:06:38.266Z,101418.47
2022-08-05T02:09:26.574Z,101421.31
2022-08-05T02:12:17.602Z,101415.13
2022-08-05T02:15:34.939Z,101419.53
2022-08-05T02:18:49.685Z,101421.34
2022-08-05T02:22:26.389Z,101424.91
2022-08-05T02:25:16.224Z,101431.09
2022-08-05T02:28:08.998Z,101424.91
2022-08-05T02:30:56.568Z,101428.53
2022-08-05T02:33:57.495Z,101432.91
2022-08-05T02:36:42.749Z,101432.03
2022-08-05T02:39:32.078Z,101438.25
2022-08-05T02:42:25.971Z,101436.44
2022-08-05T02:45:16.875Z,101440.84
2022-08-05T02:48:11.499Z,101435.56
2022-08-05T02:51:01.045Z,101443.47
2022-08-05T02:53:44.691Z,101445.34
2022-08-05T02:56:36.565Z,101448.84
2022-08-05T02:59:27.153Z,101454.09
2022-08-05T03:02:16.572Z,101452.38
2022-08-05T03:05:00.712Z,101448.94
2022-08-05T03:08:06.627Z,101450.75
2022-08-05T03:11:01.335Z,101441.97
2022-08-05T03:14:03.104Z,101449.00
2022-08-05T03:16:45.739Z,101450.75
2022-08-05T03:19:36.298Z,101452.56
2022-08-05T03:22:31.955Z,101446.41
2022-08-05T03:25:34.094Z,101452.56
2022-08-05T03:28:21.847Z,101452.59
2022-08-05T03:31:10.974Z,101448.19
2022-08-05T03:34:24.626Z,101454.38
2022-08-05T03:37:12.622Z,101455.25
2022-08-05T03:40:08.707Z,101456.16
2022-08-05T03:42:59.365Z,101450.03
2022-08-05T03:45:58.056Z,101456.19
2022-08-05T03:48:47.753Z,101454.44
2022-08-05T03:52:49.414Z,101451.78
2022-08-05T03:55:51.763Z,101456.16
2022-08-05T03:57:51.745Z,101464.13
2022-08-05T04:00:41.910Z,101461.47
2022-08-05T04:03:28.403Z,101463.22
2022-08-05T04:06:16.677Z,101463.22
2022-08-05T04:09:00.765Z,101463.22
2022-08-05T04:11:52.347Z,101461.50
2022-08-05T04:14:34.721Z,101470.25
2022-08-05T04:17:21.739Z,101472.00
2022-08-05T04:20:04.907Z,101470.28
2022-08-05T04:22:53.631Z,101475.53
2022-08-05T04:25:56.912Z,101470.28
2022-08-05T04:28:51.283Z,101466.81
2022-08-05T04:31:37.539Z,101469.41
2022-08-05T04:34:37.565Z,101472.06
2022-08-05T04:38:02.244Z,101479.06
2022-08-05T04:40:32.149Z,101470.31
2022-08-05T04:43:22.097Z,101476.50
2022-08-05T04:46:02.660Z,101477.38
2022-08-05T04:48:52.798Z,101472.13
2022-08-05T04:51:34.035Z,101472.09
2022-08-05T04:54:23.042Z,101477.34
2022-08-05T04:57:04.666Z,101476.50
2022-08-05T04:59:52.757Z,101484.38
2022-08-05T05:02:37.739Z,101484.22
2022-08-05T05:05:32.874Z,101496.28
2022-08-05T05:08:33.671Z,101489.75
2022-08-05T05:11:22.506Z,101491.75
2022-08-05T05:14:28.012Z,101492.47
2022-08-05T05:17:24.200Z,101497.44
2022-08-05T05:20:05.687Z,101498.66
2022-08-05T05:22:52.800Z,101499.44
2022-08-05T05:25:40.960Z,101504.19
2022-08-05T05:28:29.825Z,101506.72
2022-08-05T05:31:11.790Z,101506.53
2022-08-05T05:34:05.660Z,101505.41
2022-08-05T05:36:53.744Z,101499.44
2022-08-05T05:39:36.396Z,101501.06
2022-08-05T05:42:24.672Z,101509.22
2022-08-05T05:45:05.787Z,101512.56
2022-08-05T05:48:06.266Z,101512.72
2022-08-05T05:50:51.149Z,101511.41
2022-08-05T05:53:54.579Z,101515.44
2022-08-05T05:56:39.804Z,101517.53
2022-08-05T05:59:28.837Z,101524.69
2022-08-05T06:02:11.196Z,101528.63
2022-08-05T06:05:00.334Z,101532.56
2022-08-05T06:07:42.906Z,101543.88
2022-08-05T06:10:52.439Z,101539.88
2022-08-05T06:13:40.816Z,101545.72
2022-08-05T06:16:42.610Z,101542.81
2022-08-05T06:19:26.084Z,101557.72
2022-08-05T06:22:30.091Z,101556.72
2022-08-05T06:25:59.717Z,101552.28
2022-08-05T06:28:22.550Z,101553.44
2022-08-05T06:31:11.307Z,101557.00
2022-08-05T06:34:13.251Z,101565.88
2022-08-05T06:37:03.292Z,101564.78
2022-08-05T06:39:46.178Z,101574.03
2022-08-05T06:42:34.816Z,101572.28
2022-08-05T06:45:21.298Z,101571.44
2022-08-05T06:48:52.871Z,101577.53
2022-08-05T06:51:30.050Z,101581.25
2022-08-05T06:54:19.836Z,101580.72
2022-08-05T06:57:13.943Z,101578.66
2022-08-05T07:00:14.928Z,101584.44
2022-08-05T07:03:03.720Z,101586.28
2022-08-05T07:05:57.831Z,101581.72
2022-08-05T07:08:39.832Z,101588.47
2022-08-05T07:11:31.156Z,101585.78
2022-08-05T07:14:32.225Z,101600.41
2022-08-05T07:18:00.619Z,101595.50
2022-08-05T07:20:33.522Z,101603.03
2022-08-05T07:23:26.280Z,101610.84
2022-08-05T07:26:16.391Z,101615.06
2022-08-05T07:29:09.893Z,101616.25
2022-08-05T07:31:54.797Z,101618.00
2022-08-05T07:34:49.721Z,101615.91
2022-08-05T07:37:47.265Z,101623.41
2022-08-05T07:40:32.952Z,101621.72
2022-08-05T07:43:21.264Z,101622.50
2022-08-05T07:46:01.973Z,101628.00
2022-08-05T07:49:02.005Z,101634.31
2022-08-05T07:51:54.381Z,101637.03
2022-08-05T07:54:49.137Z,101644.28
2022-08-05T07:57:56.322Z,101647.50
2022-08-05T08:00:37.830Z,101639.41
2022-08-05T08:03:21.536Z,101651.53
2022-08-05T08:06:09.823Z,101654.91
2022-08-05T08:08:51.948Z,101656.22
2022-08-05T08:11:47.810Z,101662.50
2022-08-05T08:14:40.814Z,101654.81
2022-08-05T08:17:31.040Z,101669.47
2022-08-05T08:20:44.198Z,101656.75
2022-08-05T08:24:01.006Z,101654.84
2022-08-05T08:26:26.782Z,101657.50
2022-08-05T08:29:45.563Z,101652.22
2022-08-05T08:32:27.755Z,101674.66
2022-08-05T08:35:26.744Z,101671.06
2022-08-05T08:38:17.267Z,101685.09
2022-08-05T08:41:19.855Z,101679.25
2022-08-05T08:45:19.799Z,101683.03
2022-08-05T08:48:06.055Z,101673.06
2022-08-05T08:50:52.083Z,101678.69
2022-08-05T08:53:34.551Z,101673.09
2022-08-05T08:56:27.192Z,101677.94
2022-08-05T08:59:19.205Z,101674.56
2022-08-05T09:02:13.999Z,101684.94
2022-08-05T09:05:17.509Z,101684.41
2022-08-05T09:08:09.702Z,101677.81
2022-08-05T09:10:52.546Z,101694.97
2022-08-05T09:14:10.183Z,101688.53
2022-08-05T09:16:41.825Z,101690.06
2022-08-05T09:20:01.624Z,101670.91
2022-08-05T09:23:19.964Z,101697.00
2022-08-05T09:26:20.559Z,101698.09
2022-08-05T09:32:45.790Z,101700.25
2022-08-05T09:35:34.216Z,101694.50
2022-08-05T09:38:29.474Z,101696.06
2022-08-05T09:41:12.838Z,101704.47
2022-08-05T09:44:05.779Z,101702.91
2022-08-05T09:46:51.937Z,101698.97
2022-08-05T09:50:02.052Z,101690.03
2022-08-05T09:52:45.402Z,101705.97
2022-08-05T09:55:56.534Z,101707.97
2022-08-05T09:58:34.810Z,101708.13
2022-08-05T10:01:32.021Z,101718.13
2022-08-05T10:04:29.228Z,101716.38
2022-08-05T10:07:20.038Z,101718.88
2022-08-05T10:13:14.657Z,101720.47
2022-08-05T10:15:56.606Z,101725.06
2022-08-05T10:18:48.080Z,101728.22
2022-08-05T10:21:35.335Z,101732.97
2022-08-05T10:24:28.639Z,101728.91
2022-08-05T10:27:10.924Z,101725.84
2022-08-05T10:30:06.335Z,101728.81
2022-08-05T10:33:09.392Z,101745.59
2022-08-05T10:36:06.991Z,101731.81
2022-08-05T10:38:52.845Z,101753.34
2022-08-05T10:41:47.391Z,101744.31
2022-08-05T10:44:30.855Z,101740.38
2022-08-05T10:47:27.069Z,101746.03
2022-08-05T10:50:36.237Z,101743.22
2022-08-05T10:53:42.652Z,101739.75
2022-08-05T10:56:29.611Z,101745.28
2022-08-05T11:00:03.709Z,101745.94
2022-08-05T11:02:38.344Z,101749.25
2022-08-05T11:05:29.244Z,101743.25
2022-08-05T11:08:37.415Z,101747.94
2022-08-05T11:11:52.006Z,101748.97
2022-08-05T11:15:11.883Z,101754.84
2022-08-05T11:18:05.889Z,101750.31
2022-08-05T11:20:54.028Z,101749.41
2022-08-05T11:24:30.176Z,101750.09
2022-08-05T11:27:51.329Z,101762.63
2022-08-05T11:31:06.623Z,101754.28
2022-08-05T11:33:54.285Z,101754.72
2022-08-05T11:38:26.327Z,101761.28
2022-08-05T11:40:14.910Z,101761.31
2022-08-05T11:43:09.746Z,101759.84
2022-08-05T11:46:30.732Z,101759.63
2022-08-05T11:49:04.005Z,101757.81
2022-08-05T11:51:49.209Z,101757.16
2022-08-05T11:54:41.807Z,101758.41
2022-08-05T11:57:27.074Z,101761.47
2022-08-05T12:00:38.273Z,101769.53
2022-08-05T12:03:32.341Z,101767.78
2022-08-05T12:06:22.066Z,101764.75
2022-08-05T12:09:04.918Z,101764.53
2022-08-05T12:11:53.029Z,101760.81
2022-08-05T12:14:47.315Z,101767.94
2022-08-05T12:18:02.829Z,101767.31
2022-08-05T12:20:37.928Z,101778.75
2022-08-05T12:23:25.045Z,101779.19
2022-08-05T12:26:09.312Z,101773.16
2022-08-05T12:28:58.819Z,101767.00
2022-08-05T12:31:49.818Z,101775.97
2022-08-05T12:34:50.945Z,101770.91
2022-08-05T12:37:39.302Z,101776.47
2022-08-05T12:40:26.697Z,101773.50
2022-08-05T12:43:20.822Z,101766.34
2022-08-05T12:46:03.089Z,101768.78
2022-08-05T12:48:50.931Z,101770.59
2022-08-05T12:52:12.037Z,101766.00
2022-08-05T12:54:41.946Z,101768.13
2022-08-05T12:57:23.232Z,101772.53
2022-08-05T13:02:04.061Z,101777.78
2022-08-05T13:03:15.934Z,101776.56
2022-08-05T13:06:07.958Z,101786.75
2022-08-05T13:08:54.050Z,101773.47
2022-08-05T13:12:02.738Z,101788.22
2022-08-05T13:14:47.564Z,101780.38
2022-08-05T13:21:05.091Z,101776.13
2022-08-05T13:23:52.802Z,101784.91
2022-08-05T13:26:57.974Z,101781.06
2022-08-05T13:29:59.384Z,101793.75
2022-08-05T13:32:50.537Z,101779.97
2022-08-05T13:35:51.378Z,101783.22
2022-08-05T13:38:42.793Z,101781.44
2022-08-05T13:41:35.111Z,101784.63
2022-08-05T13:44:28.133Z,101788.81
2022-08-05T13:47:10.905Z,101792.31
2022-08-05T13:50:19.194Z,101794.44
2022-08-05T13:53:00.363Z,101800.16
2022-08-05T13:55:50.149Z,101795.59
2022-08-05T13:58:40.348Z,101783.53
2022-08-05T14:01:44.372Z,101806.44
2022-08-05T14:04:50.187Z,101796.25
2022-08-05T14:07:59.844Z,101797.00
2022-08-05T14:10:44.498Z,101796.25
2022-08-05T14:13:34.103Z,101804.94
2022-08-05T14:16:16.994Z,101810.44
2022-08-05T14:19:08.079Z,101791.72
2022-08-05T14:22:09.041Z,101795.84
2022-08-05T14:24:59.499Z,101805.34
2022-08-05T14:27:40.407Z,101798.09
2022-08-05T14:30:36.119Z,101800.00
2022-08-05T14:33:22.737Z,101799.63
2022-08-05T14:36:11.156Z,101802.34
2022-08-05T14:38:52.758Z,101790.91
2022-08-05T14:42:08.735Z,101798.03
2022-08-05T14:44:47.136Z,101791.94
2022-08-05T14:48:04.969Z,101795.41
2022-08-05T14:50:40.795Z,101799.84
2022-08-05T14:53:29.836Z,101804.38
2022-08-05T14:56:11.024Z,101799.25
2022-08-05T14:59:00.138Z,101801.53
2022-08-05T15:01:48.262Z,101806.69
2022-08-05T15:04:37.137Z,101802.19
2022-08-05T15:08:06.502Z,101800.97
2022-08-05T15:10:28.956Z,101800.69
2022-08-05T15:13:12.397Z,101803.38
2022-08-05T15:16:04.148Z,101788.09
2022-08-05T15:18:47.223Z,101804.16
2022-08-05T15:21:35.295Z,101800.06
2022-08-05T15:24:16.136Z,101801.25
2022-08-05T15:27:04.208Z,101793.19
2022-08-05T15:29:51.428Z,101781.38
2022-08-05T15:32:41.849Z,101793.63
2022-08-05T15:35:36.036Z,101800.84
2022-08-05T15:38:33.940Z,101792.31
2022-08-05T15:41:25.277Z,101788.22
2022-08-05T15:44:27.517Z,101792.59
2022-08-05T15:47:16.875Z,101818.13
2022-08-05T15:49:59.519Z,101815.16
2022-08-05T15:52:53.738Z,101818.06
2022-08-05T15:56:02.635Z,101809.44
2022-08-05T15:58:44.036Z,101814.09
2022-08-05T16:01:29.289Z,101813.28
2022-08-05T16:04:18.486Z,101813.09
2022-08-05T16:07:00.886Z,101815.44
2022-08-05T16:09:48.432Z,101815.16
2022-08-05T16:12:30.167Z,101815.13
2022-08-05T16:15:19.116Z,101820.13
2022-08-05T16:18:04.055Z,101806.91
2022-08-05T16:20:52.806Z,101814.91
2022-08-05T16:23:53.835Z,101817.28
2022-08-05T16:26:56.822Z,101818.88
2022-08-05T16:29:41.252Z,101817.25
2022-08-05T16:32:31.350Z,101819.53
2022-08-05T16:35:28.702Z,101822.22
2022-08-05T16:38:28.143Z,101818.75
2022-08-05T16:42:14.278Z,101816.28
2022-08-05T16:44:21.246Z,101820.47
2022-08-05T16:47:07.242Z,101819.66
2022-08-05T16:50:18.828Z,101822.22
2022-08-05T16:53:11.943Z,101818.81
2022-08-05T16:56:00.812Z,101825.47
2022-08-05T16:58:44.176Z,101824.63
2022-08-05T17:01:54.560Z,101822.88
2022-08-05T17:04:35.843Z,101828.31
2022-08-05T17:07:39.272Z,101823.03
2022-08-05T17:10:30.565Z,101823.50
2022-08-05T17:13:21.280Z,101832.38
2022-08-05T17:16:32.625Z,101834.16
2022-08-05T17:19:24.447Z,101828.09
2022-08-05T17:22:06.187Z,101827.13
2022-08-05T17:25:00.246Z,101833.56
2022-08-05T17:27:42.219Z,101835.31
2022-08-05T17:30:30.600Z,101828.88
2022-08-05T17:33:11.220Z,101830.69
2022-08-05T17:36:32.824Z,101845.81
2022-08-05T17:39:24.538Z,101842.53
2022-08-05T17:42:30.204Z,101844.34
2022-08-05T17:45:22.052Z,101839.97
2022-08-05T17:48:04.214Z,101852.50
2022-08-05T17:50:53.274Z,101850.72
2022-08-05T17:53:35.911Z,101852.44
2022-08-05T17:56:23.257Z,101850.50
2022-08-05T17:59:09.096Z,101851.56
2022-08-05T18:01:59.460Z,101862.47
2022-08-05T18:04:51.332Z,101860.72
2022-08-05T18:07:42.866Z,101859.34
2022-08-05T18:10:25.956Z,101870.94
2022-08-05T18:13:13.259Z,101878.94
2022-08-05T18:15:54.108Z,101872.88
2022-08-05T18:18:48.604Z,101880.06
2022-08-05T18:22:08.916Z,101891.72
2022-08-05T18:24:39.955Z,101881.84
2022-08-05T18:27:21.503Z,101888.00
2022-08-05T18:30:08.255Z,101885.56
2022-08-05T18:32:53.676Z,101890.78
2022-08-05T18:36:01.399Z,101891.44
2022-08-05T18:38:53.515Z,101886.09
2022-08-05T18:41:56.551Z,101905.00
2022-08-05T18:44:51.509Z,101904.34
2022-08-05T18:47:38.057Z,101907.97
2022-08-05T18:50:46.964Z,101899.28
2022-08-05T18:53:29.599Z,101906.56
2022-08-05T18:56:25.407Z,101911.06
2022-08-05T18:59:42.730Z,101916.34
2022-08-05T19:02:36.475Z,101918.28
2022-08-05T19:06:13.612Z,101929.94
2022-08-05T19:08:30.440Z,101928.47
2022-08-05T19:11:14.474Z,101930.34
2022-08-05T19:14:15.293Z,101933.22
2022-08-05T19:17:03.287Z,101934.22
2022-08-05T19:19:54.555Z,101934.34
2022-08-05T19:22:35.588Z,101935.22
2022-08-05T19:25:30.700Z,101942.47
2022-08-05T19:28:23.274Z,101939.03
2022-08-05T19:31:13.393Z,101950.63
2022-08-05T19:33:56.711Z,101955.94
2022-08-05T19:36:47.305Z,101957.75
2022-08-05T19:39:30.111Z,101961.38
2022-08-05T19:42:35.066Z,101972.06
2022-08-05T19:45:17.470Z,101969.31
2022-08-05T19:48:06.169Z,101964.09
2022-08-05T19:50:49.265Z,101975.66
2022-08-05T19:54:04.588Z,101981.88
2022-08-05T19:56:41.331Z,101985.50
2022-08-05T19:59:55.137Z,101994.34
2022-08-05T20:02:33.799Z,101989.94
2022-08-05T20:05:25.055Z,102004.97
2022-08-05T20:08:07.447Z,102003.22
2022-08-05T20:10:58.182Z,102006.03
2022-08-05T20:13:58.051Z,102016.63
2022-08-05T20:16:46.195Z,102018.41
2022-08-05T20:19:36.013Z,102016.69
2022-08-05T20:22:26.589Z,102018.25
2022-08-05T20:25:10.296Z,102028.06
2022-08-05T20:27:59.198Z,102025.53
2022-08-05T20:30:41.149Z,102030.78
2022-08-05T20:33:29.216Z,102040.59
2022-08-05T20:36:25.183Z,102039.69
2022-08-05T20:39:17.072Z,102043.28
2022-08-05T20:42:00.339Z,102049.53
2022-08-05T20:44:48.204Z,102050.34
2022-08-05T20:47:34.307Z,102052.19
2022-08-05T20:50:27.939Z,102060.16
2022-08-05T20:53:16.001Z,102056.59
2022-08-05T20:56:24.518Z,102051.31
2022-08-05T20:59:19.357Z,102057.44
2022-08-05T21:02:14.255Z,102057.56
2022-08-05T21:05:02.696Z,102054.88
2022-08-05T21:07:52.047Z,102052.19
2022-08-05T21:10:34.378Z,102058.44
2022-08-05T21:13:36.789Z,102047.00
2022-08-05T21:16:29.581Z,102053.22
2022-08-05T21:19:20.759Z,102056.69
2022-08-05T21:22:04.337Z,102062.88
2022-08-05T21:24:56.598Z,102064.63
2022-08-05T21:27:38.959Z,102062.94
2022-08-05T21:30:29.228Z,102062.03
2022-08-05T21:33:22.328Z,102070.94
2022-08-05T21:36:10.977Z,102068.25
2022-08-05T21:38:55.413Z,102065.63
2022-08-05T21:41:42.223Z,102071.78
2022-08-05T21:44:34.455Z,102077.06
2022-08-05T21:47:55.167Z,102079.72
2022-08-05T21:50:23.362Z,102087.66
2022-08-05T21:53:17.623Z,102091.19
2022-08-05T21:56:06.055Z,102089.44
2022-08-05T21:59:08.081Z,102097.38
2022-08-05T22:02:03.488Z,102092.94
2022-08-05T22:04:50.265Z,102092.94
2022-08-05T22:07:40.125Z,102087.63
2022-08-05T22:10:41.522Z,102089.44
2022-08-05T22:14:06.555Z,102094.72
2022-08-05T22:16:50.908Z,102090.31
2022-08-05T22:19:57.460Z,102095.56
2022-08-05T22:23:03.790Z,102093.84
2022-08-05T22:26:17.604Z,102088.50
2022-08-05T22:29:08.648Z,102098.22
2022-08-05T22:31:55.261Z,102088.50
2022-08-05T22:34:49.063Z,102093.78
2022-08-05T22:37:59.070Z,102092.03
2022-08-05T22:40:49.379Z,102086.75
2022-08-05T22:43:36.872Z,102092.03
2022-08-05T22:46:25.850Z,102092.03
2022-08-05T22:49:12.362Z,102099.94
2022-08-05T22:52:30.488Z,102100.78
2022-08-05T22:55:19.399Z,102102.56
2022-08-05T22:58:11.620Z,102105.19
2022-08-05T23:00:56.938Z,102100.78
2022-08-05T23:03:57.785Z,102099.91
2022-08-05T23:06:40.395Z,102101.66
2022-08-05T23:09:53.234Z,102108.66
2022-08-05T23:12:32.388Z,102109.47
2022-08-05T23:15:22.446Z,102118.34
2022-08-05T23:18:11.625Z,102114.81
2022-08-05T23:21:04.036Z,102117.38
2022-08-05T23:23:45.568Z,102120.91
2022-08-05T23:26:36.448Z,102116.47
2022-08-05T23:29:17.436Z,102118.16
2022-08-05T23:32:08.047Z,102120.72
2022-08-05T23:34:51.619Z,102120.00
2022-08-05T23:37:46.302Z,102122.50
2022-08-05T23:40:35.486Z,102121.59
2022-08-05T23:43:25.604Z,102111.03
2022-08-05T23:46:24.881Z,102120.72
2022-08-05T23:49:16.868Z,102118.88
2022-08-05T23:52:30.532Z,102112.69
2022-08-05T23:55:14.329Z,102113.59
2022-08-05T23:58:01.424Z,102116.47
